TimeCST,TemperatureF,Dew PointF,Humidity,Sea Level PressureIn,VisibilityMPH,Wind Direction,Wind SpeedMPH,Gust SpeedMPH,PrecipitationIn,Events,Conditions,WindDirDegrees,DateUTC
12:15 AM,41.0,37.4,87,29.83,3.0,SW,5.8,-,N/A,,Heavy Drizzle,220,2012-12-29 06:15:00
12:35 AM,41.0,37.4,87,29.83,4.0,WSW,5.8,-,N/A,,Heavy Drizzle,240,2012-12-29 06:35:00
12:55 AM,41.0,39.2,93,29.80,5.0,SSE,4.6,-,N/A,,Drizzle,160,2012-12-29 06:55:00
1:15 AM,41.0,39.2,93,29.81,5.0,South,5.8,-,N/A,,Drizzle,190,2012-12-29 07:15:00
1:35 AM,41.0,39.2,93,29.82,4.0,SW,6.9,-,N/A,,Drizzle,220,2012-12-29 07:35:00
1:55 AM,41.0,39.2,93,29.82,7.0,SSW,5.8,-,0.01,Rain,Light Rain,200,2012-12-29 07:55:00
2:15 AM,41.0,39.2,93,29.84,5.0,West,11.5,-,N/A,Rain,Rain,280,2012-12-29 08:15:00
2:35 AM,41.0,37.4,87,29.85,10.0,WNW,11.5,19.6,N/A,,Overcast,290,2012-12-29 08:35:00
2:55 AM,41.0,35.6,81,29.85,10.0,West,9.2,-,N/A,,Overcast,280,2012-12-29 08:55:00
3:15 AM,41.0,35.6,81,29.86,10.0,West,10.4,-,N/A,,Overcast,280,2012-12-29 09:15:00
3:35 AM,39.2,33.8,81,29.87,10.0,WNW,13.8,20.7,N/A,,Overcast,290,2012-12-29 09:35:00
3:55 AM,37.4,33.8,87,29.88,10.0,WNW,13.8,20.7,N/A,,Overcast,290,2012-12-29 09:55:00
4:15 AM,37.4,32.0,81,29.88,10.0,WNW,9.2,-,N/A,,Overcast,290,2012-12-29 10:15:00
4:35 AM,37.4,33.8,87,29.89,10.0,WNW,11.5,16.1,N/A,,Overcast,290,2012-12-29 10:35:00
4:55 AM,37.4,33.8,87,29.90,10.0,WNW,12.7,-,N/A,,Overcast,290,2012-12-29 10:55:00
5:15 AM,37.4,33.8,87,29.91,10.0,WNW,12.7,18.4,N/A,,Overcast,290,2012-12-29 11:15:00
5:35 AM,37.4,33.8,87,29.92,10.0,WNW,15.0,25.3,N/A,,Overcast,290,2012-12-29 11:35:00
5:55 AM,37.4,32.0,81,29.94,10.0,NW,16.1,20.7,N/A,,Overcast,320,2012-12-29 11:55:00
6:15 AM,35.6,32.0,87,29.95,10.0,NW,11.5,18.4,N/A,,Overcast,310,2012-12-29 12:15:00
6:35 AM,35.6,32.0,87,29.96,10.0,NW,8.1,16.1,N/A,,Overcast,310,2012-12-29 12:35:00
6:55 AM,35.6,32.0,87,29.98,10.0,WNW,15.0,-,N/A,,Overcast,300,2012-12-29 12:55:00
7:15 AM,35.6,30.2,81,29.98,10.0,NW,11.5,21.9,N/A,,Overcast,310,2012-12-29 13:15:00
7:35 AM,35.6,30.2,81,29.98,10.0,NW,10.4,-,N/A,,Overcast,320,2012-12-29 13:35:00
7:55 AM,35.6,32.0,87,30.00,10.0,NW,9.2,-,N/A,,Overcast,310,2012-12-29 13:55:00
8:15 AM,35.6,32.0,87,30.01,10.0,WNW,10.4,-,N/A,,Overcast,300,2012-12-29 14:15:00
8:35 AM,35.6,32.0,87,30.02,10.0,NW,8.1,-,N/A,,Overcast,310,2012-12-29 14:35:00
8:55 AM,35.6,32.0,87,30.03,4.0,West,10.4,-,N/A,,Drizzle,270,2012-12-29 14:55:00
9:15 AM,35.6,32.0,87,30.04,4.0,WNW,8.1,-,N/A,,Light Drizzle,300,2012-12-29 15:15:00
9:35 AM,35.6,32.0,87,30.05,5.0,WNW,10.4,-,N/A,,Drizzle,290,2012-12-29 15:35:00
9:55 AM,33.8,32.0,93,30.06,5.0,WNW,12.7,18.4,N/A,,Overcast,290,2012-12-29 15:55:00
10:15 AM,33.8,30.2,87,30.07,7.0,WNW,9.2,-,N/A,,Overcast,300,2012-12-29 16:15:00
10:35 AM,33.8,30.2,87,30.07,10.0,NW,8.1,18.4,N/A,,Overcast,310,2012-12-29 16:35:00
10:55 AM,35.6,30.2,81,30.07,10.0,NW,10.4,17.3,N/A,,Overcast,320,2012-12-29 16:55:00
11:15 AM,35.6,30.2,81,30.06,10.0,NW,11.5,-,N/A,,Overcast,320,2012-12-29 17:15:00
11:35 AM,33.8,30.2,87,30.07,10.0,NW,8.1,-,N/A,,Overcast,310,2012-12-29 17:35:00
11:55 AM,35.6,30.2,81,30.06,10.0,West,11.5,-,N/A,,Overcast,280,2012-12-29 17:55:00
12:15 PM,33.8,28.4,81,30.06,10.0,West,6.9,-,N/A,,Overcast,280,2012-12-29 18:15:00
12:35 PM,33.8,28.4,81,30.06,10.0,WNW,11.5,17.3,N/A,,Overcast,290,2012-12-29 18:35:00
12:55 PM,33.8,28.4,81,30.07,10.0,WNW,9.2,-,N/A,,Overcast,300,2012-12-29 18:55:00
1:15 PM,33.8,28.4,81,30.07,10.0,WNW,8.1,-,N/A,,Overcast,300,2012-12-29 19:15:00
1:35 PM,33.8,28.4,81,30.08,7.0,WNW,10.4,-,N/A,,Overcast,290,2012-12-29 19:35:00
1:55 PM,33.8,30.2,87,30.08,10.0,West,6.9,-,N/A,,Overcast,280,2012-12-29 19:55:00
2:35 PM,33.8,28.4,81,30.11,7.0,WNW,10.4,17.3,N/A,,Overcast,290,2012-12-29 20:35:00
2:55 PM,33.8,28.4,81,30.12,10.0,WNW,12.7,18.4,N/A,,Overcast,290,2012-12-29 20:55:00
3:15 PM,33.8,28.4,81,30.13,10.0,WNW,10.4,19.6,N/A,,Overcast,290,2012-12-29 21:15:00
3:35 PM,33.8,28.4,81,30.15,7.0,WNW,13.8,24.2,N/A,Snow,Light Snow,300,2012-12-29 21:35:00
3:55 PM,33.8,28.4,81,30.16,7.0,WNW,10.4,16.1,N/A,Snow,Light Snow,300,2012-12-29 21:55:00
4:15 PM,33.8,28.4,81,30.16,7.0,NW,10.4,-,N/A,Snow,Light Snow,310,2012-12-29 22:15:00
4:35 PM,33.8,28.4,81,30.17,7.0,WNW,12.7,17.3,N/A,Snow,Light Snow,290,2012-12-29 22:35:00
4:55 PM,32.0,28.4,87,30.18,10.0,NW,12.7,20.7,N/A,Snow,Light Snow,310,2012-12-29 22:55:00
5:15 PM,32.0,28.4,87,30.20,10.0,WNW,12.7,-,N/A,,Overcast,300,2012-12-29 23:15:00
5:35 PM,32.0,28.4,87,30.21,10.0,WNW,12.7,17.3,N/A,,Mostly Cloudy,300,2012-12-29 23:35:00
5:55 PM,32.0,26.6,80,30.22,10.0,NW,8.1,-,N/A,,Mostly Cloudy,310,2012-12-29 23:55:00
6:15 PM,32.0,28.4,87,30.23,10.0,WNW,9.2,-,N/A,,Overcast,300,2012-12-30 00:15:00
6:35 PM,32.0,26.6,80,30.24,10.0,WNW,9.2,16.1,N/A,,Overcast,290,2012-12-30 00:35:00
7:15 PM,32.0,26.6,80,30.26,10.0,NW,11.5,-,N/A,,Overcast,310,2012-12-30 01:15:00
7:35 PM,32.0,24.8,75,30.26,10.0,WNW,10.4,-,N/A,,Overcast,300,2012-12-30 01:35:00
7:55 PM,32.0,24.8,75,30.27,10.0,WNW,11.5,-,N/A,,Scattered Clouds,300,2012-12-30 01:55:00
8:15 PM,32.0,23.0,69,30.28,10.0,WNW,10.4,-,N/A,,Mostly Cloudy,290,2012-12-30 02:15:00
8:35 PM,32.0,23.0,69,30.29,10.0,WNW,10.4,-,N/A,,Scattered Clouds,300,2012-12-30 02:35:00
8:55 PM,32.0,23.0,69,30.30,10.0,NW,8.1,-,N/A,,Mostly Cloudy,310,2012-12-30 02:55:00
9:15 PM,32.0,23.0,69,30.30,10.0,NW,8.1,-,N/A,,Overcast,310,2012-12-30 03:15:00
9:35 PM,32.0,23.0,69,30.31,10.0,NNW,9.2,-,N/A,,Overcast,330,2012-12-30 03:35:00
9:55 PM,32.0,23.0,69,30.33,10.0,NW,8.1,-,N/A,,Overcast,320,2012-12-30 03:55:00
10:15 PM,32.0,23.0,69,30.34,10.0,NW,8.1,-,N/A,,Overcast,320,2012-12-30 04:15:00
10:35 PM,32.0,23.0,69,30.34,10.0,NNW,6.9,-,N/A,,Overcast,330,2012-12-30 04:35:00
10:55 PM,32.0,21.2,64,30.35,10.0,NW,10.4,-,N/A,,Overcast,320,2012-12-30 04:55:00
11:15 PM,32.0,21.2,64,30.35,10.0,NW,12.7,16.1,N/A,,Overcast,310,2012-12-30 05:15:00
11:35 PM,32.0,21.2,64,30.36,10.0,WNW,12.7,17.3,N/A,,Overcast,290,2012-12-30 05:35:00
11:55 PM,32.0,21.2,64,30.36,10.0,WNW,12.7,20.7,N/A,,Overcast,300,2012-12-30 05:55:00